Weather observations for the past three days for
Decorah
Metric (Imperial)
Date Time (cdt) Wind (kph) Vis. (km) Weather Sky Cond. Temperature (ºC) Relative Humidity Wind Chill (°C) Heat Index (°C) Pressure Precipitation (cm)
Air Dwpt 6 hour altimeter (cm) sea level (mb) 1 hr 3 hr 6 hr
Max. Min.
03 23:55 SW 6 16.09 Mostly Cloudy FEW041 BKN050 BKN055 14 0 39% 75.34 0.0
03 23:35 SW 6 16.09 Mostly Cloudy FEW037 SCT042 BKN050 14 0 39% 75.36 0.0
03 23:15 SW 6 16.09 Partly Cloudy FEW040 FEW048 SCT055 14 0 39% 75.39 0.0
03 22:55 Calm 16.09 Partly Cloudy SCT050 SCT060 15 0 36% 75.41 0.0
03 22:35 Calm 16.09 Partly Cloudy SCT050 SCT060 15 0 36% 75.41 0.0
03 22:15 Calm 16.09 A Few Clouds FEW055 15 0 36% 75.41 0.0
03 21:55 Calm 16.09 A Few Clouds FEW049 FEW055 16 0 34% 75.41 0.0
03 21:35 Calm 16.09 A Few Clouds FEW050 17 -1 30% 75.41 0.0
03 21:15 Calm 16.09 Partly Cloudy SCT050 17 -1 30% 75.39 0.0
03 20:55 NW 7 16.09 Partly Cloudy SCT050 18 0 30% 75.39 0.0
03 20:35 Vrbl 7 16.09 Fair CLR 18 0 30% 75.39 0.0
03 20:15 W 6 16.09 Fair CLR 19 -1 26% 75.36 0.0
03 19:55 Calm 16.09 Fair CLR 20 -1 24% 75.39 0.0
03 19:35 NW 9 G 22 16.09 Fair CLR 20 -1 24% 75.36 0.0
03 19:15 NW 13 G 22 16.09 Fair CLR 21 -1 23% 75.36 0.0
03 18:55 NW 17 G 30 16.09 Fair CLR 21 -1 23% 75.36 0.0
03 18:35 W 15 G 26 16.09 Fair CLR 22 0 23% 75.34 0.0
03 18:15 NW 20 G 31 16.09 Fair CLR 22 0 23% 75.34 0.0
03 17:55 NW 13 G 28 16.09 Fair CLR 22 0 23% 75.34 0.0
03 17:35 NW 13 G 37 16.09 Fair CLR 22 0 23% 75.34 0.0
03 17:15 NW 19 G 33 16.09 Fair CLR 22 0 23% 75.34 0.0
03 16:55 NW 22 G 31 16.09 Fair CLR 22 0 23% 75.34 0.0
03 16:35 NW 19 G 33 16.09 Fair CLR 22 0 23% 75.34 0.0
03 16:15 NW 26 16.09 Fair CLR 22 1 25% 75.34 0.0
03 15:55 NW 13 G 37 16.09 Fair CLR 22 0 23% 75.34 0.0
03 15:35 N 24 G 41 16.09 Fair CLR 22 1 25% 75.36 0.0
03 15:15 NW 22 G 35 16.09 NULL NULL 22 2 27% 75.36 0.0
03 14:55 NW 19 G 31 16.09 Fair CLR 22 3 29% 75.36 0.0
03 14:35 NW 28 16.09 Fair CLR 22 3 29% 75.36 0.0
03 14:15 NW 17 G 31 16.09 Fair CLR 22 3 29% 75.36 0.0
03 13:55 NW 28 G 41 16.09 Fair CLR 22 4 31% 75.36 0.0
03 13:35 NW 20 G 31 16.09 Fair CLR 21 4 33% 75.39 0.0
03 13:15 NW 13 G 35 16.09 Fair CLR 21 4 33% 75.39 0.0
03 12:55 NW 15 16.09 Fair CLR 20 4 35% 75.41 0.0
03 12:35 Vrbl 7 G 20 16.09 Fair CLR 19 4 37% 75.44 0.0
03 12:15 Vrbl 7 G 19 16.09 Fair CLR 18 3 37% 75.44 0.0
03 11:55 W 13 16.09 Fair CLR 18 3 37% 75.44 0.0
03 11:35 SW 15 G 26 16.09 Fair CLR 17 3 39% 75.46 0.0
03 11:15 SW 15 G 26 16.09 Fair CLR 17 2 37% 75.46 0.0
03 10:55 SW 15 G 26 16.09 Fair CLR 16 2 39% 75.49 0.0
03 10:35 Vrbl 13 G 30 16.09 Fair CLR 16 2 39% 75.49 0.0
03 10:15 SW 13 G 30 16.09 Fair CLR 15 2 42% 75.49 0.0
03 09:55 SW 17 G 35 16.09 Fair CLR 15 2 42% 75.49 0.0
03 09:35 SW 19 G 35 16.09 Fair CLR 14 2 44% 75.49 0.0
03 09:15 SW 22 G 39 16.09 Fair CLR 14 1 41% 75.51 0.0
03 08:55 S 22 G 44 16.09 Fair CLR 13 1 44% 75.54 0.0
03 08:35 S 17 G 39 16.09 Fair CLR 13 1 44% 75.54 0.0
03 08:15 S 24 G 46 16.09 A Few Clouds FEW100 13 1 44% 75.57 0.0
03 07:55 S 17 G 37 16.09 A Few Clouds FEW095 12 1 47% 75.57 0.0
03 07:35 S 20 G 37 16.09 Mostly Cloudy FEW055 FEW065 BKN095 12 1 47% 75.57 0.0
03 07:15 S 17 G 39 14.48 Mostly Cloudy FEW034 FEW060 BKN100 12 2 51% 75.57 0.0
03 06:55 SW 15 16.09 Partly Cloudy SCT110 12 2 51% 75.54 0.0
03 06:35 S 13 G 30 16.09 Partly Cloudy SCT100 SCT120 12 2 51% 75.51 0.0
03 06:15 S 20 G 46 16.09 Mostly Cloudy BKN095 12 2 51% 75.49 0.0
03 05:35 S 17 G 33 16.09 Overcast SCT075 OVC090 11 3 58% 75.59 0.0
03 05:15 S 19 G 28 16.09 Overcast BKN075 BKN090 OVC120 12 2 51% 75.67 0.0
03 04:55 SW 20 G 33 16.09 Mostly Cloudy FEW055 SCT070 BKN100 12 1 47% 75.69 0.0
03 04:35 SW 15 G 31 16.09 Overcast FEW055 SCT065 OVC110 12 0 44% 75.74 0.0
03 04:15 SW 20 G 35 16.09 Overcast SCT080 OVC100 12 0 44% 75.74 0.0
03 03:55 SW 19 G 33 16.09 NULL NULL 13 1 44% 75.74 0.0
03 03:35 SW 17 G 26 16.09 Overcast SCT060 BKN070 OVC100 12 0 44% 75.74 0.0
03 03:15 SW 17 G 30 16.09 Overcast BKN080 OVC100 12 0 44% 75.77 0.0
03 02:55 SW 17 16.09 NULL NULL 11 -1 44% 75.77 0.0
03 02:35 SW 15 G 24 0.00 NULL NULL 0 0 0% 75.79 0.0
03 02:15 Vrbl 11 G 33 0.00 Mostly Cloudy FEW075 BKN090 BKN120 11 -1 44% 75.82 0.0
03 01:55 Vrbl 11 G 24 16.09 Mostly Cloudy BKN090 BKN120 11 -1 44% 75.82 0.0
03 01:35 SW 15 G 35 16.09 Mostly Cloudy BKN110 11 -2 41% 75.82 0.0
03 01:15 SW 17 G 33 16.09 NULL NULL 11 -2 41% 75.82 0.0
03 00:55 SW 19 G 35 16.09 Overcast OVC100 11 -2 41% 75.84 0.0
03 00:35 SW 17 G 30 16.09 Mostly Cloudy BKN095 BKN110 11 -2 41% 75.87 0.0
03 00:15 SW 20 G 31 16.09 Partly Cloudy FEW055 SCT110 11 -2 41% 75.87 0.0
02 23:55 Vrbl 11 G 22 16.09 A Few Clouds FEW049 FEW060 10 -2 43% 9 75.87 0.0
02 23:15 S 11 0.00 NULL NULL 10 -2 43% 9 75.9 0.0
02 22:55 Vrbl 11 G 22 16.09 Mostly Cloudy FEW047 FEW055 BKN100 10 -2 43% 9 75.92 0.0
02 22:35 S 13 G 22 16.09 Overcast OVC100 11 -2 41% 75.95 0.0
02 22:15 S 11 16.09 Mostly Cloudy BKN110 11 -2 41% 75.95 0.0
02 21:55 S 9 G 20 16.09 Mostly Cloudy FEW047 FEW055 BKN120 12 -2 38% 75.97 0.0
02 21:35 Vrbl 11 16.09 Mostly Cloudy FEW040 SCT050 BKN120 12 -2 38% 75.97 0.0
02 21:15 S 11 16.09 Mostly Cloudy SCT039 BKN045 BKN050 12 -2 38% 75.97 0.0
02 20:55 Vrbl 11 16.09 Mostly Cloudy FEW037 SCT048 BKN055 13 -2 36% 75.97 0.0
02 20:35 Calm 16.09 A Few Clouds FEW120 13 -1 38% 75.97 0.0
02 20:15 SW 7 16.09 Fair CLR 14 -2 33% 75.97 0.0
02 19:55 Vrbl 7 16.09 Fair CLR 14 -3 31% 75.97 0.0
02 19:35 Vrbl 7 16.09 Fair CLR 15 -3 29% 75.97 0.0
02 19:15 Vrbl 11 G 20 16.09 Fair CLR 15 -3 29% 76 0.0
02 18:55 Vrbl 13 G 22 16.09 Fair CLR 16 -3 27% 76 0.0
02 18:35 SW 13 G 24 16.09 Fair CLR 16 -3 27% 76.02 0.0
02 18:15 W 13 G 26 16.09 Fair CLR 16 -4 25% 76.02 0.0
02 17:55 Vrbl 9 G 26 16.09 Fair CLR 16 -4 25% 76.05 0.0
02 17:35 W 15 G 26 16.09 Fair CLR 16 -4 25% 76.05 0.0
02 17:15 Vrbl 11 G 26 16.09 Partly Cloudy SCT080 16 -4 25% 76.07 0.0
02 16:55 SW 13 G 22 16.09 Partly Cloudy SCT085 16 -5 23% 76.1 0.0
02 16:35 Vrbl 9 G 26 16.09 Fair CLR 16 -4 25% 76.1 0.0
02 16:15 Vrbl 9 G 28 16.09 Fair CLR 16 -4 25% 76.12 0.0
02 15:55 Vrbl 11 G 37 16.09 Fair CLR 16 -4 25% 76.15 0.0
02 15:35 W 13 G 28 16.09 Fair CLR 15 -4 27% 76.17 0.0
02 15:15 Vrbl 6 G 30 16.09 A Few Clouds FEW080 16 -4 25% 76.2 0.0
02 14:55 W 15 G 33 16.09 NULL NULL 15 -4 27% 76.2 0.0
02 14:35 W 17 G 31 16.09 A Few Clouds FEW080 15 -4 27% 76.23 0.0
02 14:15 NW 15 G 28 16.09 A Few Clouds FEW075 15 -4 27% 76.25 0.0
02 13:55 Vrbl 9 G 26 16.09 Partly Cloudy SCT075 15 -4 27% 76.28 0.0
02 13:35 NW 15 G 26 16.09 A Few Clouds FEW075 14 -4 29% 76.3 0.0
02 13:15 Vrbl 11 G 22 16.09 Partly Cloudy SCT075 14 -5 27% 76.3 0.0
02 12:55 W 15 G 28 16.09 Partly Cloudy SCT075 13 -5 28% 76.33 0.0
02 12:35 NW 15 G 24 16.09 Mostly Cloudy BKN070 14 -4 29% 76.35 0.0
02 12:15 NW 13 G 26 16.09 Mostly Cloudy BKN070 13 -5 28% 76.35 0.0
02 11:55 W 13 G 28 16.09 Partly Cloudy SCT070 13 -5 28% 76.38 0.0
02 11:35 NW 15 G 31 16.09 Fair CLR 12 -5 30% 76.38 0.0
02 11:15 Vrbl 9 G 28 16.09 Fair CLR 13 -5 28% 76.4 0.0
02 10:55 Vrbl 9 G 22 16.09 Fair CLR 12 -5 30% 76.4 0.0
02 10:35 NW 13 G 28 16.09 Fair CLR 12 -4 33% 76.43 0.0
02 10:15 Vrbl 7 G 26 16.09 Fair CLR 11 -5 32% 76.43 0.0
02 09:55 NW 19 16.09 Fair CLR 11 -5 32% 76.43 0.0
02 09:35 W 13 G 24 16.09 Fair CLR 10 -4 37% 8 76.43 0.0
02 09:15 W 13 G 24 16.09 Fair CLR 9 -4 40% 7 76.45 0.0
02 08:55 Vrbl 6 16.09 Fair CLR 8 -3 46% 76.45 0.0
02 08:35 Vrbl 7 16.09 Fair CLR 7 -3 49% 6 76.48 0.0
02 08:15 Vrbl 7 16.09 Fair CLR 6 -3 53% 5 76.48 0.0
02 07:55 Calm 16.09 Fair CLR 5 -3 57% 76.48 0.0
02 07:35 Calm 16.09 Fair CLR 4 -4 56% 76.45 0.0
02 07:15 Calm 16.09 Fair CLR 3 -4 60% 76.45 0.0
02 06:55 Calm 16.09 Fair CLR 2 -5 60% 76.45 0.0
02 06:35 Calm 16.09 Fair CLR 2 -5 60% 76.45 0.0
02 06:15 Calm 16.09 Fair CLR 1 -4 70% 76.43 0.0
02 05:55 Calm 16.09 Fair CLR 1 -4 70% 76.43 0.0
02 05:35 Calm 16.09 Fair CLR 1 -4 70% 76.43 0.0
02 05:15 Calm 16.09 A Few Clouds FEW050 1 -4 70% 76.43 0.0
02 04:55 Calm 16.09 Fair CLR 2 -4 65% 76.43 0.0
02 04:35 Calm 16.09 Fair CLR 1 -4 70% 76.43 0.0
02 04:15 Calm 16.09 Fair CLR 0 -3 80% 76.4 0.0
02 03:55 Calm 16.09 Fair CLR 1 -4 70% 76.4 0.0
02 03:35 Calm 16.09 Fair CLR 1 -4 70% 76.4 0.0
02 03:15 Calm 16.09 A Few Clouds FEW045 2 -5 60% 76.4 0.0
02 02:55 Calm 16.09 Fair CLR 1 -4 70% 76.4 0.0
02 02:15 Calm 16.09 Fair CLR 1 -4 70% 76.43 0.0
02 01:55 Calm 16.09 Fair CLR 2 -4 65% 76.43 0.0
02 01:35 Calm 16.09 Fair CLR 2 -4 65% 76.43 0.0
02 01:15 Calm 16.09 A Few Clouds FEW042 FEW048 3 -5 56% 76.43 0.0
02 00:55 Calm 16.09 A Few Clouds FEW040 FEW047 4 -5 52% 76.43 0.0
02 00:35 Calm 16.09 A Few Clouds FEW048 3 -5 56% 76.43 0.0
02 00:15 Calm 16.09 A Few Clouds FEW047 3 -5 56% 76.43 0.0
01 23:55 Calm 16.09 Fair CLR 4 -5 52% 76.4 0.0
01 23:35 Calm 16.09 Fair CLR 4 -5 52% 76.4 0.0
01 23:15 Calm 16.09 Fair CLR 5 -5 49% 76.4 0.0
01 22:55 Calm 16.09 Fair CLR 5 -5 49% 76.4 0.0
01 22:35 Calm 16.09 Fair CLR 5 -5 49% 76.4 0.0
01 22:15 Calm 16.09 A Few Clouds FEW039 FEW075 6 -5 46% 76.4 0.0
01 21:55 Calm 16.09 Partly Cloudy SCT065 SCT075 7 -5 43% 76.4 0.0
01 21:35 N 7 16.09 Overcast OVC070 7 -5 43% 6 76.38 0.0
01 21:15 N 7 16.09 Overcast OVC075 7 -5 43% 6 76.38 0.0
01 20:55 N 7 16.09 Overcast OVC070 8 -6 37% 7 76.35 0.0
01 20:35 NE 7 16.09 Overcast BKN070 OVC080 8 -6 37% 7 76.33 0.0
01 20:15 N 9 16.09 Overcast OVC075 9 -6 34% 8 76.3 0.0
01 19:55 N 17 16.09 Overcast OVC075 10 -6 32% 8 76.3 0.0
01 19:35 N 11 16.09 Mostly Cloudy BKN080 10 -6 32% 9 76.28 0.0
01 19:15 N 11 16.09 A Few Clouds FEW080 10 -7 30% 9 76.28 0.0
01 18:55 N 15 16.09 A Few Clouds FEW075 10 -7 30% 8 76.28 0.0
01 18:35 N 11 16.09 A Few Clouds FEW065 FEW080 10 -7 30% 9 76.25 0.0
01 18:15 N 15 16.09 A Few Clouds FEW080 10 -7 30% 8 76.25 0.0
01 17:55 N 17 16.09 Partly Cloudy SCT075 10 -7 30% 8 76.25 0.0
01 17:35 N 15 G 24 16.09 Mostly Cloudy BKN075 11 -7 28% 76.25 0.0
01 17:15 NW 13 G 24 16.09 Partly Cloudy SCT075 11 -6 30% 76.25 0.0
01 16:55 N 13 G 24 16.09 Mostly Cloudy BKN070 10 -6 32% 8 76.25 0.0
01 16:35 N 17 G 28 16.09 Mostly Cloudy BKN070 11 -6 30% 76.25 0.0
01 16:15 N 19 G 30 16.09 Partly Cloudy SCT070 11 -6 30% 76.25 0.0
01 15:55 Vrbl 11 G 24 16.09 Mostly Cloudy BKN070 11 -6 30% 76.25 0.0
01 15:35 NW 15 G 28 16.09 Mostly Cloudy BKN065 11 -6 30% 76.25 0.0
01 15:15 N 20 G 30 16.09 Mostly Cloudy BKN065 10 -5 35% 8 76.25 0.0
01 14:55 N 26 G 35 16.09 Mostly Cloudy BKN065 11 -5 32% 76.28 0.0
01 14:35 N 22 G 33 16.09 Mostly Cloudy BKN060 BKN075 11 -4 35% 76.25 0.0
01 14:15 NW 13 G 28 16.09 Mostly Cloudy BKN065 11 -4 35% 76.25 0.0
01 13:55 N 19 G 28 16.09 Overcast BKN060 OVC070 10 -4 37% 8 76.25 0.0
01 13:35 NW 17 G 28 16.09 Mostly Cloudy SCT055 BKN065 11 -4 35% 76.25 0.0
01 13:15 NW 20 16.09 Partly Cloudy FEW055 SCT070 10 -3 40% 8 76.25 0.0
01 12:55 N 20 16.09 Mostly Cloudy SCT055 BKN070 11 -3 38% 76.25 0.0
01 12:35 Vrbl 11 G 28 16.09 Overcast BKN055 OVC065 9 -3 43% 8 76.25 0.0
01 12:15 N 13 16.09 Mostly Cloudy BKN050 BKN060 10 -2 43% 8 76.25 0.0
01 11:55 Vrbl 9 G 30 16.09 Mostly Cloudy FEW047 SCT055 BKN065 10 -1 47% 9 76.25 0.0
01 11:35 N 19 G 28 16.09 Mostly Cloudy FEW048 SCT055 BKN065 9 -2 46% 7 76.25 0.0
01 11:15 NE 13 16.09 A Few Clouds FEW043 9 -1 50% 7 76.25 0.0
01 10:55 Calm 16.09 Fair CLR 8 -1 53% 76.25 0.0
01 10:35 Vrbl 9 16.09 Fair CLR 8 0 57% 7 76.25 0.0
01 10:15 N 7 16.09 Fair CLR 8 0 57% 7 76.25 0.0
01 09:55 N 7 16.09 Partly Cloudy SCT080 8 0 57% 7 76.25 0.0
01 09:35 Vrbl 7 16.09 Mostly Cloudy BKN080 7 0 61% 6 76.28 0.0
01 09:15 Calm 16.09 Partly Cloudy SCT080 7 0 61% 76.28 0.0
01 08:55 NW 9 16.09 A Few Clouds FEW070 6 0 66% 4 76.28 0.0
01 08:35 Calm 16.09 Partly Cloudy FEW075 SCT085 6 0 66% 76.25 0.0
01 08:15 Calm 16.09 Mostly Cloudy BKN085 5 0 70% 76.25 0.0
01 07:55 Calm 16.09 A Few Clouds FEW060 5 1 76% 76.25 0.0
01 07:35 Calm 16.09 Mostly Cloudy FEW060 BKN085 4 1 81% 76.25 0.0
01 07:15 Calm 16.09 Overcast OVC085 5 0 70% 76.23 0.0
01 06:55 Calm 16.09 Overcast FEW050 SCT070 OVC090 3 2 93% 76.23 0.0
01 06:35 Calm 16.09 Overcast SCT060 BKN070 OVC100 3 2 93% 76.2 0.0
01 06:15 Calm 16.09 Overcast SCT055 OVC070 3 2 93% 76.2 0.0
01 05:55 Calm 16.09 Overcast SCT055 OVC070 3 2 93% 76.2 0.0
01 05:35 Calm 16.09 Overcast OVC070 3 2 93% 76.2 0.0
01 05:15 Calm 16.09 Overcast SCT060 OVC075 2 2 100% 76.2 0.0
01 04:55 Calm 16.09 Overcast BKN060 OVC075 3 1 87% 76.23 0.0
01 04:35 Calm 16.09 Overcast SCT060 OVC075 3 0 81% 76.23 0.0
01 04:15 Calm 16.09 Overcast BKN060 OVC075 3 0 81% 76.2 0.0
01 03:55 Calm 16.09 Overcast OVC060 3 0 81% 76.2 0.0
01 03:35 Calm 16.09 Overcast BKN060 OVC075 2 1 93% 76.2 0.0
01 03:15 Calm 16.09 Overcast BKN060 OVC075 2 2 100% 76.2 0.0
01 02:55 Calm 16.09 Overcast OVC070 2 2 100% 76.2 0.0
01 02:35 Calm 16.09 Overcast FEW055 FEW065 OVC075 2 -2 75% 76.2 0.0
01 02:15 Calm 16.09 Overcast FEW060 BKN070 OVC080 2 -2 75% 76.23 0.0
01 01:55 Calm 16.09 Overcast SCT070 BKN080 OVC100 2 -2 75% 76.23 0.0
01 01:35 Calm 16.09 Overcast BKN100 OVC120 2 -2 75% 76.23 0.0
01 01:15 Calm 16.09 Overcast FEW050 SCT095 OVC120 3 -3 65% 76.23 0.0
01 00:55 Calm 16.09 Mostly Cloudy FEW046 FEW055 BKN110 3 -2 70% 76.23 0.0
01 00:35 Calm 16.09 Mostly Cloudy BKN110 2 -1 81% 76.23 0.0
01 00:15 Calm 16.09 Partly Cloudy FEW045 FEW055 SCT120 2 -2 75% 76.23 0.0
Date Time (cdt) Wind (kph) Vis. (km) Weather Sky Cond. Air Dwpt Max. Min. Relative Humidity Wind Chill (°C) Heat Index (°C) altimeter (cm) sea level (mb) 1 hr 3 hr 6 hr
6 hour
Temperature (ºC) Pressure Precipitation (cm)